Time;durP1;ratioP1;P1;durP2;ratioP2;P2;SDS_P1;SDS_P2;PMS_P1;PMS_P2;Temp;Humidity;BMP_temperature;BMP_pressure;BME280_temperature;BME280_humidity;BME280_pressure;Samples;Min_cycle;Max_cycle;Signal;HPM_P1;HPM_P2
2021/11/19 00:00:13;;;;;;;19.15;11.45;;;5.70;99.90;;;;;;5065549;28;20204;-74
2021/11/19 00:02:59;;;;;;;24.95;12.75;;;5.80;99.90;;;;;;5067884;28;20729;-75
2021/11/19 00:05:46;;;;;;;13.98;10.75;;;5.70;99.90;;;;;;5061018;28;20246;-74
2021/11/19 00:08:31;;;;;;;16.92;12.30;;;5.80;99.90;;;;;;5067795;28;20240;-74
2021/11/19 00:11:22;;;;;;;24.67;11.95;;;5.70;99.90;;;;;;5067808;28;20222;-74
2021/11/19 00:14:09;;;;;;;18.38;11.68;;;5.70;99.90;;;;;;5069270;28;20196;-74
2021/11/19 00:16:57;;;;;;;19.13;12.50;;;5.60;99.90;;;;;;5073943;28;20203;-75
2021/11/19 00:19:45;;;;;;;19.15;12.15;;;5.60;99.90;;;;;;5077363;28;20196;-74
2021/11/19 00:22:31;;;;;;;17.38;11.07;;;5.60;99.90;;;;;;5070589;28;20228;-74
2021/11/19 00:25:16;;;;;;;27.92;13.35;;;5.60;99.90;;;;;;5069520;28;20201;-74
2021/11/19 00:28:06;;;;;;;18.50;12.07;;;5.50;99.90;;;;;;5066746;28;20333;-74
2021/11/19 00:30:52;;;;;;;24.95;13.13;;;5.50;99.90;;;;;;5069155;28;20204;-74
2021/11/19 00:33:39;;;;;;;18.17;11.15;;;5.40;99.90;;;;;;5075920;28;20271;-75
2021/11/19 00:36:27;;;;;;;20.90;13.77;;;5.30;99.90;;;;;;5066589;28;20227;-74
2021/11/19 00:39:16;;;;;;;19.00;12.20;;;5.30;99.90;;;;;;5074328;28;20199;-74
2021/11/19 00:42:02;;;;;;;26.80;12.35;;;5.30;99.90;;;;;;5064017;28;20296;-74
2021/11/19 00:44:49;;;;;;;20.42;12.85;;;5.20;99.90;;;;;;5069268;28;20220;-74
2021/11/19 00:47:35;;;;;;;18.38;10.10;;;5.20;99.90;;;;;;5069940;28;20199;-74
2021/11/19 00:50:24;;;;;;;19.90;11.73;;;5.10;99.90;;;;;;5067754;28;20220;-74
2021/11/19 00:53:10;;;;;;;25.80;12.30;;;5.10;99.90;;;;;;5065548;28;20315;-74
2021/11/19 00:55:55;;;;;;;21.27;12.85;;;5.00;99.90;;;;;;5061893;28;20247;-74
2021/11/19 00:58:41;;;;;;;26.25;14.82;;;5.00;99.90;;;;;;5070315;28;20219;-74
2021/11/19 01:01:31;;;;;;;19.67;13.00;;;5.00;99.90;;;;;;5069897;28;20228;-75
2021/11/19 01:04:18;;;;;;;26.05;12.63;;;5.00;99.90;;;;;;5073006;28;20276;-75
2021/11/19 01:07:06;;;;;;;19.13;11.73;;;5.00;99.90;;;;;;5063729;28;20258;-74
2021/11/19 01:09:54;;;;;;;22.40;13.77;;;5.00;99.90;;;;;;5067354;28;20215;-73
2021/11/19 01:12:40;;;;;;;22.15;14.27;;;5.00;99.90;;;;;;5072155;28;20333;-74
2021/11/19 01:15:30;;;;;;;19.65;12.73;;;5.00;99.90;;;;;;5061985;28;20199;-74
2021/11/19 01:18:21;;;;;;;24.98;14.18;;;5.00;99.90;;;;;;5071821;28;20203;-75
2021/11/19 01:21:10;;;;;;;36.67;14.65;;;5.10;99.90;;;;;;5066726;28;20673;-75
2021/11/19 01:23:58;;;;;;;25.38;15.40;;;5.10;99.90;;;;;;5064566;28;20690;-74
2021/11/19 01:26:46;;;;;;;20.85;14.52;;;5.20;99.90;;;;;;5070080;28;20690;-74
2021/11/19 01:29:32;;;;;;;24.95;14.27;;;5.30;99.90;;;;;;5069267;28;20216;-74
2021/11/19 01:32:21;;;;;;;25.65;13.13;;;5.40;99.90;;;;;;5070414;28;20216;-74
2021/11/19 01:35:09;;;;;;;16.35;12.02;;;5.40;99.90;;;;;;5066453;28;20676;-74
2021/11/19 01:37:54;;;;;;;22.30;15.13;;;5.50;99.90;;;;;;5063128;28;20700;-74
2021/11/19 01:40:43;;;;;;;23.10;14.98;;;5.60;99.90;;;;;;5065082;28;20715;-74
2021/11/19 01:43:30;;;;;;;26.30;13.38;;;5.70;99.90;;;;;;5076657;28;20199;-74
2021/11/19 01:46:19;;;;;;;29.13;14.18;;;5.80;99.90;;;;;;5070131;28;20200;-74
2021/11/19 01:49:04;;;;;;;23.95;12.82;;;5.90;99.90;;;;;;5065828;28;20359;-74
2021/11/19 01:51:55;;;;;;;24.95;11.30;;;6.00;99.90;;;;;;5062244;28;20220;-74
2021/11/19 01:54:46;;;;;;;29.17;13.70;;;6.00;99.90;;;;;;5064738;28;20294;-75
2021/11/19 01:57:35;;;;;;;27.73;13.50;;;6.00;99.90;;;;;;5068390;28;20226;-74
2021/11/19 02:00:30;;;;;;;22.80;14.57;;;6.00;99.90;;;;;;5075370;28;20213;-74
2021/11/19 02:03:18;;;;;;;19.60;13.50;;;6.00;99.90;;;;;;5092531;22;20252;-73
2021/11/19 02:06:07;;;;;;;23.27;14.10;;;5.90;99.90;;;;;;5085896;28;20203;-73
2021/11/19 02:08:56;;;;;;;22.65;12.82;;;6.00;99.90;;;;;;5084133;28;20219;-73
2021/11/19 02:11:58;;;;;;;28.25;14.05;;;6.20;99.90;;;;;;5087643;28;20274;-73
2021/11/19 02:14:53;;;;;;;30.95;14.93;;;6.20;99.90;;;;;;5067787;28;20326;-74
2021/11/19 02:17:40;;;;;;;21.90;14.38;;;6.30;99.90;;;;;;5069562;28;20327;-74
2021/11/19 02:20:32;;;;;;;19.67;13.50;;;6.30;99.90;;;;;;5063237;28;20208;-73
2021/11/19 02:23:20;;;;;;;23.58;14.65;;;6.40;99.90;;;;;;5068649;28;20296;-74
2021/11/19 02:26:12;;;;;;;29.80;16.25;;;6.40;99.90;;;;;;5064110;28;20200;-74
2021/11/19 02:28:59;;;;;;;25.42;14.38;;;6.40;99.90;;;;;;5066098;28;20223;-74
2021/11/19 02:31:52;;;;;;;22.48;14.73;;;6.40;99.90;;;;;;5068949;28;20212;-73
2021/11/19 02:34:38;;;;;;;21.90;15.55;;;6.50;99.90;;;;;;5066311;28;20796;-73
2021/11/19 02:37:29;;;;;;;28.60;16.15;;;6.50;99.90;;;;;;5068997;28;20243;-74
2021/11/19 02:40:17;;;;;;;31.20;15.82;;;6.50;99.90;;;;;;5065098;28;20204;-73
2021/11/19 02:43:17;;;;;;;27.95;15.88;;;6.50;99.90;;;;;;5066870;28;20343;-73
2021/11/19 02:46:04;;;;;;;24.60;15.25;;;6.50;99.90;;;;;;5066191;28;20200;-74
2021/11/19 02:48:50;;;;;;;24.95;16.00;;;6.50;99.90;;;;;;5068099;28;20208;-73
2021/11/19 02:51:36;;;;;;;32.05;16.98;;;6.40;99.90;;;;;;5070367;28;20195;-74
2021/11/19 02:54:27;;;;;;;29.90;17.83;;;6.40;99.90;;;;;;5066120;28;20721;-74
2021/11/19 02:57:13;;;;;;;24.88;16.65;;;6.50;99.90;;;;;;5068405;28;20208;-74
2021/11/19 03:00:00;;;;;;;31.35;22.00;;;6.50;99.90;;;;;;5064342;28;20684;-74
2021/11/19 03:02:46;;;;;;;45.67;22.77;;;6.60;99.90;;;;;;5069117;28;20274;-74
2021/11/19 03:05:32;;;;;;;33.92;21.10;;;6.60;99.90;;;;;;5072725;28;20323;-74
2021/11/19 03:08:18;;;;;;;37.05;21.30;;;6.50;99.90;;;;;;5071438;28;20200;-74
2021/11/19 03:11:05;;;;;;;28.20;18.77;;;6.50;99.90;;;;;;5071841;28;20270;-74
2021/11/19 03:13:52;;;;;;;29.08;19.15;;;6.50;99.90;;;;;;5070196;28;20775;-73
2021/11/19 03:16:38;;;;;;;30.70;18.45;;;6.50;99.90;;;;;;5067482;28;20204;-73
2021/11/19 03:19:25;;;;;;;36.22;20.25;;;6.50;99.90;;;;;;5071595;28;20572;-74
2021/11/19 03:22:14;;;;;;;28.67;18.75;;;6.40;99.90;;;;;;5069576;28;20228;-74
2021/11/19 03:24:59;;;;;;;28.02;17.40;;;6.50;99.90;;;;;;5064874;28;20236;-74
2021/11/19 03:27:46;;;;;;;28.85;18.05;;;6.60;99.90;;;;;;5066475;28;20334;-74
2021/11/19 03:30:32;;;;;;;28.43;18.70;;;6.60;99.90;;;;;;5064610;28;20231;-74
2021/11/19 03:33:23;;;;;;;28.60;18.50;;;6.70;99.90;;;;;;5067247;28;20470;-73
2021/11/19 03:36:11;;;;;;;33.30;18.92;;;6.70;99.90;;;;;;5067403;28;20196;-73
2021/11/19 03:39:00;;;;;;;29.90;19.42;;;6.80;99.90;;;;;;5068268;28;20622;-73
2021/11/19 03:41:47;;;;;;;28.13;19.08;;;6.80;99.90;;;;;;5066237;28;20265;-74
2021/11/19 03:44:35;;;;;;;30.40;20.90;;;6.80;99.90;;;;;;5071062;28;20728;-73
2021/11/19 03:47:24;;;;;;;42.35;28.60;;;6.70;99.90;;;;;;5066506;28;20442;-73
2021/11/19 03:50:15;;;;;;;50.55;35.42;;;6.80;99.90;;;;;;5068661;28;20223;-73
2021/11/19 03:53:01;;;;;;;46.35;31.52;;;6.70;99.90;;;;;;5070798;28;20215;-73
2021/11/19 03:55:49;;;;;;;36.88;27.40;;;6.80;99.90;;;;;;5063739;28;20197;-73
2021/11/19 03:58:38;;;;;;;35.30;24.77;;;6.80;99.90;;;;;;5070962;28;20204;-73
2021/11/19 04:01:29;;;;;;;37.30;27.63;;;6.80;99.90;;;;;;5067596;28;20681;-73
2021/11/19 04:04:17;;;;;;;43.13;30.65;;;6.90;99.90;;;;;;5064013;28;20215;-73
2021/11/19 04:07:06;;;;;;;36.13;29.73;;;6.90;99.90;;;;;;5064850;28;20212;-73
2021/11/19 04:09:52;;;;;;;37.40;27.67;;;6.90;99.90;;;;;;5066952;28;20216;-74
2021/11/19 04:12:37;;;;;;;53.28;27.75;;;6.90;99.90;;;;;;5067511;28;20306;-73
2021/11/19 04:15:31;;;;;;;36.00;27.20;;;6.90;99.90;;;;;;5069834;28;20203;-73
2021/11/19 04:18:16;;;;;;;36.00;26.85;;;6.90;99.90;;;;;;5067039;28;20501;-74
2021/11/19 04:21:03;;;;;;;39.05;26.80;;;7.00;99.90;;;;;;5062392;28;20334;-73
2021/11/19 04:23:52;;;;;;;37.47;27.15;;;6.90;99.90;;;;;;5067526;28;20223;-74
2021/11/19 04:26:39;;;;;;;39.47;29.00;;;6.90;99.90;;;;;;5067781;28;20200;-73
2021/11/19 04:29:25;;;;;;;39.90;27.58;;;6.90;99.90;;;;;;5067878;28;20205;-74
2021/11/19 04:32:11;;;;;;;40.55;27.83;;;6.90;99.90;;;;;;5067822;28;20595;-73
2021/11/19 04:34:57;;;;;;;45.88;26.00;;;7.00;99.90;;;;;;5069480;28;20269;-73
2021/11/19 04:37:44;;;;;;;40.92;28.95;;;7.00;99.90;;;;;;5066284;28;20192;-73
2021/11/19 04:40:31;;;;;;;37.17;29.10;;;7.00;99.90;;;;;;5067452;28;20201;-74
2021/11/19 04:43:17;;;;;;;36.17;26.23;;;7.10;99.90;;;;;;5063341;28;20224;-74
2021/11/19 04:46:05;;;;;;;38.30;26.33;;;7.10;99.90;;;;;;5062322;28;20227;-74
2021/11/19 04:48:51;;;;;;;38.47;25.10;;;7.10;99.90;;;;;;5069917;28;20208;-74
2021/11/19 04:51:39;;;;;;;40.55;25.83;;;7.10;99.90;;;;;;5064941;28;20348;-73
2021/11/19 04:54:26;;;;;;;39.17;23.80;;;7.10;99.90;;;;;;5068963;28;20236;-73
2021/11/19 04:57:13;;;;;;;36.13;24.10;;;7.20;99.90;;;;;;5064918;28;20219;-73
2021/11/19 04:59:58;;;;;;;35.70;22.33;;;7.20;99.90;;;;;;5068453;28;20212;-73
2021/11/19 05:02:44;;;;;;;34.50;21.83;;;7.10;99.90;;;;;;5028913;28;1131701;-73
2021/11/19 05:05:30;;;;;;;40.40;21.20;;;7.10;99.90;;;;;;5063405;28;20290;-74
2021/11/19 05:08:15;;;;;;;27.38;20.83;;;7.10;99.90;;;;;;5066311;28;20741;-73
2021/11/19 05:11:01;;;;;;;32.63;21.70;;;7.20;99.90;;;;;;5065916;28;20219;-73
2021/11/19 05:13:48;;;;;;;36.63;21.33;;;7.20;99.90;;;;;;5064023;28;20212;-73
2021/11/19 05:16:35;;;;;;;33.90;21.40;;;7.20;99.90;;;;;;5069072;28;20200;-73
2021/11/19 05:19:21;;;;;;;35.42;21.90;;;7.20;99.90;;;;;;5061688;28;20570;-74
2021/11/19 05:22:08;;;;;;;39.90;19.97;;;7.20;99.90;;;;;;5065846;28;20285;-74
2021/11/19 05:24:54;;;;;;;32.70;17.90;;;7.30;99.90;;;;;;5070956;28;20423;-73
2021/11/19 05:27:39;;;;;;;31.65;17.17;;;7.30;99.90;;;;;;5065465;28;20524;-74
2021/11/19 05:30:27;;;;;;;34.08;19.73;;;7.30;99.90;;;;;;5065588;28;20216;-74
2021/11/19 05:33:17;;;;;;;25.37;16.90;;;7.30;99.90;;;;;;5069193;28;20228;-74
2021/11/19 05:36:03;;;;;;;29.20;15.97;;;7.30;99.90;;;;;;5066311;28;20442;-74
2021/11/19 05:38:48;;;;;;;29.05;16.42;;;7.40;99.90;;;;;;5066010;28;20429;-74
2021/11/19 05:41:35;;;;;;;31.43;16.60;;;7.40;99.90;;;;;;5064159;28;20326;-74
2021/11/19 05:44:21;;;;;;;25.50;16.33;;;7.40;99.90;;;;;;5064730;28;20966;-74
2021/11/19 05:47:08;;;;;;;27.40;16.98;;;7.50;99.90;;;;;;5061554;28;20207;-74
2021/11/19 05:49:57;;;;;;;31.02;18.38;;;7.50;99.90;;;;;;5068693;28;20626;-74
2021/11/19 05:52:42;;;;;;;29.08;18.02;;;7.40;99.90;;;;;;5066417;28;20223;-73
2021/11/19 05:55:32;;;;;;;30.50;18.17;;;7.40;99.90;;;;;;5063512;28;20204;-74
2021/11/19 05:58:18;;;;;;;35.40;17.65;;;7.40;99.90;;;;;;5063741;28;20207;-74
2021/11/19 06:01:07;;;;;;;40.13;18.60;;;7.40;99.90;;;;;;5065813;28;20346;-74
2021/11/19 06:03:55;;;;;;;25.75;15.77;;;7.50;99.90;;;;;;5065554;28;20282;-74
2021/11/19 06:06:41;;;;;;;29.23;15.98;;;7.50;99.90;;;;;;5067173;28;20294;-74
2021/11/19 06:09:31;;;;;;;31.30;18.87;;;7.50;99.90;;;;;;5055790;28;20200;-74
2021/11/19 06:12:19;;;;;;;28.17;17.47;;;7.50;99.90;;;;;;5062843;28;20466;-73
2021/11/19 06:15:10;;;;;;;28.15;16.55;;;7.60;99.90;;;;;;5068663;28;20439;-74
2021/11/19 06:18:01;;;;;;;31.25;19.00;;;7.60;99.90;;;;;;5069188;28;20204;-74
2021/11/19 06:20:52;;;;;;;28.58;16.60;;;7.60;99.90;;;;;;5066362;28;20684;-74
2021/11/19 06:23:42;;;;;;;30.77;15.63;;;7.60;99.90;;;;;;5065533;28;20220;-74
2021/11/19 06:26:30;;;;;;;31.35;17.88;;;7.60;99.90;;;;;;5064581;28;20444;-74
2021/11/19 06:29:17;;;;;;;32.33;17.30;;;7.60;99.90;;;;;;5067346;28;20369;-74
2021/11/19 06:32:03;;;;;;;27.50;16.30;;;7.60;99.90;;;;;;5065439;28;20456;-74
2021/11/19 06:34:48;;;;;;;28.85;16.92;;;7.60;99.90;;;;;;5069678;28;20940;-74
2021/11/19 06:37:35;;;;;;;25.40;13.95;;;7.60;99.90;;;;;;5063164;28;20572;-74
2021/11/19 06:40:24;;;;;;;25.63;15.40;;;7.60;99.90;;;;;;5069320;28;20197;-74
2021/11/19 06:43:10;;;;;;;29.60;15.75;;;7.60;99.90;;;;;;5064131;28;20394;-74
2021/11/19 06:45:56;;;;;;;30.23;16.27;;;7.60;99.90;;;;;;5073766;28;20208;-74
2021/11/19 06:48:42;;;;;;;24.10;14.73;;;7.50;99.90;;;;;;5071845;28;20196;-73
2021/11/19 06:51:28;;;;;;;26.38;15.95;;;7.50;99.90;;;;;;5066468;28;20224;-73
2021/11/19 06:54:15;;;;;;;28.30;15.00;;;7.50;99.90;;;;;;5072913;28;20208;-74
2021/11/19 06:57:01;;;;;;;30.27;18.30;;;7.50;99.90;;;;;;5073018;28;20224;-74
2021/11/19 06:59:50;;;;;;;33.13;17.17;;;7.50;99.90;;;;;;5067545;28;20207;-73
2021/11/19 07:02:36;;;;;;;34.53;18.13;;;7.60;99.90;;;;;;5071227;28;21050;-74
2021/11/19 07:05:22;;;;;;;33.60;18.93;;;7.60;99.90;;;;;;5064426;28;20200;-74
2021/11/19 07:08:09;;;;;;;36.75;18.65;;;7.60;99.90;;;;;;5066746;28;20454;-74
2021/11/19 07:10:59;;;;;;;45.80;18.45;;;7.70;99.90;;;;;;5069123;28;20232;-74
2021/11/19 07:13:48;;;;;;;33.20;16.77;;;7.70;99.90;;;;;;5067872;28;20777;-73
2021/11/19 07:16:35;;;;;;;31.13;16.50;;;7.70;99.90;;;;;;5071550;28;20315;-73
2021/11/19 07:19:23;;;;;;;30.47;17.10;;;7.70;99.90;;;;;;5064571;28;20786;-74
2021/11/19 07:22:09;;;;;;;34.50;15.63;;;7.80;99.90;;;;;;5067251;28;20418;-74
2021/11/19 07:24:54;;;;;;;28.45;16.83;;;7.80;99.90;;;;;;5072895;28;20608;-74
2021/11/19 07:27:42;;;;;;;29.70;16.00;;;7.80;99.90;;;;;;5065411;28;20205;-74
2021/11/19 07:30:31;;;;;;;26.98;15.95;;;7.80;99.90;;;;;;5069274;28;20228;-74
2021/11/19 07:33:17;;;;;;;25.98;15.65;;;7.80;99.90;;;;;;5065945;28;20267;-74
2021/11/19 07:36:04;;;;;;;22.25;14.68;;;7.80;99.90;;;;;;5064522;28;20460;-74
2021/11/19 07:38:50;;;;;;;27.60;15.32;;;7.80;99.90;;;;;;5070860;28;20779;-74
2021/11/19 07:41:36;;;;;;;29.58;15.27;;;7.90;99.90;;;;;;5062289;28;20256;-74
2021/11/19 07:44:25;;;;;;;25.47;15.87;;;7.90;99.90;;;;;;5070403;28;20203;-75
2021/11/19 07:47:11;;;;;;;28.70;15.90;;;7.90;99.90;;;;;;5069263;28;20581;-75
2021/11/19 07:49:56;;;;;;;22.70;14.40;;;7.90;99.90;;;;;;5064405;28;20212;-75
2021/11/19 07:52:42;;;;;;;23.88;14.20;;;8.00;99.90;;;;;;5070677;28;20511;-75
2021/11/19 07:55:28;;;;;;;27.97;15.67;;;8.00;99.90;;;;;;5060691;28;20205;-75
2021/11/19 07:58:14;;;;;;;30.33;17.13;;;8.00;99.90;;;;;;5072087;28;20438;-75
2021/11/19 08:01:02;;;;;;;32.10;17.75;;;8.10;99.90;;;;;;5067839;28;20199;-74
2021/11/19 08:03:48;;;;;;;36.33;18.37;;;8.10;99.90;;;;;;5059842;28;20705;-75
2021/11/19 08:06:34;;;;;;;33.17;17.48;;;8.10;99.90;;;;;;5069150;28;20459;-74
2021/11/19 08:09:21;;;;;;;34.15;21.30;;;8.10;99.90;;;;;;5063242;28;20232;-75
2021/11/19 08:12:07;;;;;;;37.70;20.20;;;8.10;99.90;;;;;;5066666;28;20720;-74
2021/11/19 08:14:53;;;;;;;27.20;17.03;;;8.10;99.90;;;;;;5069318;28;20793;-75
2021/11/19 08:17:42;;;;;;;30.13;17.58;;;8.10;99.90;;;;;;5070418;28;20425;-74
2021/11/19 08:20:30;;;;;;;34.17;17.38;;;8.10;99.90;;;;;;5069682;28;20200;-75
2021/11/19 08:23:19;;;;;;;23.77;15.63;;;8.10;99.90;;;;;;5066028;28;20480;-75
2021/11/19 08:26:07;;;;;;;32.05;20.45;;;8.10;99.90;;;;;;5064321;28;20204;-75
2021/11/19 08:28:53;;;;;;;30.50;20.20;;;8.10;99.90;;;;;;5068379;28;20321;-75
2021/11/19 08:31:40;;;;;;;34.30;19.97;;;8.10;99.90;;;;;;5065514;28;20839;-75
2021/11/19 08:34:27;;;;;;;30.58;15.95;;;8.20;99.90;;;;;;5070277;28;20496;-75
2021/11/19 08:37:12;;;;;;;34.13;20.80;;;8.20;99.90;;;;;;5060935;28;20228;-75
2021/11/19 08:39:59;;;;;;;38.57;18.47;;;8.20;99.90;;;;;;5067525;28;20220;-75
2021/11/19 08:42:46;;;;;;;29.23;17.80;;;8.20;99.90;;;;;;5061897;28;20477;-75
2021/11/19 08:45:32;;;;;;;24.17;14.83;;;8.10;99.90;;;;;;5068588;28;20309;-75
2021/11/19 08:48:18;;;;;;;26.60;15.77;;;8.20;99.90;;;;;;5067278;28;20505;-75
2021/11/19 08:51:11;;;;;;;31.47;15.87;;;8.10;99.90;;;;;;5067347;28;20524;-74
2021/11/19 08:53:59;;;;;;;27.20;15.30;;;8.10;99.90;;;;;;5060607;28;20475;-75
2021/11/19 08:56:47;;;;;;;29.87;14.70;;;8.20;99.90;;;;;;5068971;28;20447;-75
2021/11/19 08:59:35;;;;;;;22.40;13.27;;;8.20;99.90;;;;;;5063639;28;20508;-75
2021/11/19 09:02:24;;;;;;;30.03;13.27;;;8.10;99.90;;;;;;5068011;28;20428;-74
2021/11/19 09:05:10;;;;;;;29.70;15.20;;;8.20;99.90;;;;;;5069554;28;20483;-74
2021/11/19 09:07:57;;;;;;;30.13;15.40;;;8.20;99.90;;;;;;5066711;28;20453;-75
2021/11/19 09:10:45;;;;;;;29.90;16.10;;;8.20;99.90;;;;;;5068118;28;20446;-75
2021/11/19 09:13:31;;;;;;;23.67;13.97;;;8.20;99.90;;;;;;5069634;28;20592;-75
2021/11/19 09:16:19;;;;;;;22.03;13.93;;;8.10;99.90;;;;;;5070062;28;20454;-75
2021/11/19 09:19:14;;;;;;;29.67;16.10;;;8.10;99.90;;;;;;5066022;28;20545;-74
2021/11/19 09:22:10;;;;;;;26.83;16.67;;;8.20;99.90;;;;;;5068603;28;20442;-75
2021/11/19 09:24:58;;;;;;;27.60;15.60;;;8.20;99.90;;;;;;5063930;28;20425;-74
2021/11/19 09:27:44;;;;;;;32.38;16.77;;;8.30;99.90;;;;;;5066053;28;20467;-75
2021/11/19 09:30:37;;;;;;;30.50;15.37;;;8.30;99.90;;;;;;5070232;28;20675;-75
2021/11/19 09:33:24;;;;;;;27.07;16.63;;;8.40;99.90;;;;;;5063108;28;21145;-75
2021/11/19 09:36:10;;;;;;;25.13;15.38;;;8.40;99.90;;;;;;5060252;28;20443;-75
2021/11/19 09:38:56;;;;;;;41.73;15.60;;;8.40;99.90;;;;;;5065903;28;20301;-75
2021/11/19 09:42:03;;;;;;;30.57;16.00;;;8.40;99.90;;;;;;5067032;28;20442;-75
2021/11/19 09:45:25;;;;;;;41.80;18.57;;;8.40;99.90;;;;;;5068987;28;20443;-75
2021/11/19 09:48:45;;;;;;;27.87;15.07;;;8.40;99.90;;;;;;5067085;28;20562;-75
2021/11/19 09:52:08;;;;;;;28.53;15.80;;;8.30;99.90;;;;;;5069286;28;20463;-75
2021/11/19 09:55:29;;;;;;;30.73;17.13;;;8.30;99.90;;;;;;5068036;28;20501;-75
2021/11/19 09:58:33;;;;;;;24.30;15.97;;;8.30;99.90;;;;;;5065755;28;20444;-75
2021/11/19 10:01:54;;;;;;;26.27;16.73;;;8.30;99.90;;;;;;5063255;28;20966;-75
2021/11/19 10:05:16;;;;;;;25.10;15.75;;;8.20;99.90;;;;;;5066108;28;20452;-75
2021/11/19 10:08:14;;;;;;;32.77;16.37;;;8.20;99.90;;;;;;5069556;28;20204;-75
2021/11/19 10:11:08;;;;;;;28.23;16.37;;;8.10;99.90;;;;;;5064337;28;20577;-74
2021/11/19 10:14:26;;;;;;;36.10;17.70;;;8.20;99.90;;;;;;5061018;28;20564;-74
2021/11/19 10:17:23;;;;;;;31.20;17.15;;;8.10;99.90;;;;;;5065378;28;20553;-75
2021/11/19 10:20:14;;;;;;;37.40;17.35;;;8.20;99.90;;;;;;5068545;28;20208;-75
2021/11/19 10:23:07;;;;;;;27.77;17.03;;;8.10;99.90;;;;;;5070201;28;20763;-75
2021/11/19 10:26:00;;;;;;;31.07;17.30;;;8.20;99.90;;;;;;5061933;28;20527;-75
2021/11/19 10:28:49;;;;;;;35.43;17.00;;;8.20;99.90;;;;;;5064204;28;20488;-75
2021/11/19 10:31:36;;;;;;;34.60;20.00;;;8.20;99.90;;;;;;5062054;28;20847;-74
2021/11/19 10:34:29;;;;;;;28.77;17.73;;;8.20;99.90;;;;;;5066700;28;20462;-75
2021/11/19 10:37:54;;;;;;;33.87;20.57;;;8.10;99.90;;;;;;5064510;28;20425;-75
2021/11/19 10:41:17;;;;;;;31.93;17.77;;;8.10;99.90;;;;;;5051123;28;20463;-75
2021/11/19 10:44:27;;;;;;;29.57;18.00;;;8.20;99.90;;;;;;5066191;28;20434;-75
2021/11/19 10:47:27;;;;;;;30.70;18.92;;;8.30;99.90;;;;;;5062284;28;20443;-75
2021/11/19 10:50:55;;;;;;;33.77;18.20;;;8.20;99.90;;;;;;5063052;28;20192;-74
2021/11/19 10:54:18;;;;;;;37.83;18.30;;;8.20;99.90;;;;;;5058076;28;20665;-75
2021/11/19 10:57:20;;;;;;;31.03;17.27;;;8.30;99.90;;;;;;5065022;28;20832;-75
2021/11/19 11:00:15;;;;;;;27.50;16.33;;;8.30;99.90;;;;;;5064555;28;20422;-75
2021/11/19 11:03:10;;;;;;;27.60;16.70;;;8.30;99.90;;;;;;5060787;28;20564;-75
2021/11/19 11:05:59;;;;;;;27.70;17.63;;;8.30;99.90;;;;;;5065022;28;20447;-73
2021/11/19 11:08:47;;;;;;;30.47;17.13;;;8.40;99.90;;;;;;5065996;28;20461;-74
2021/11/19 11:11:39;;;;;;;30.27;16.88;;;8.40;99.90;;;;;;5065328;28;20483;-75
2021/11/19 11:14:30;;;;;;;26.57;16.63;;;8.40;99.90;;;;;;5064299;28;20209;-75
2021/11/19 11:17:26;;;;;;;24.30;15.50;;;8.50;99.90;;;;;;5064038;28;20418;-75
2021/11/19 11:20:24;;;;;;;216.47;81.97;;;8.50;99.90;;;;;;5067450;28;20389;-76
2021/11/19 11:23:26;;;;;;;34.37;18.90;;;8.60;99.90;;;;;;5071858;28;20441;-74
2021/11/19 11:26:14;;;;;;;27.95;15.82;;;8.70;99.90;;;;;;5070149;28;20481;-76
2021/11/19 11:29:18;;;;;;;25.27;17.55;;;8.80;99.90;;;;;;5071368;28;20398;-74
2021/11/19 11:32:15;;;;;;;25.60;16.37;;;8.90;99.90;;;;;;5063864;28;20586;-74
2021/11/19 11:35:11;;;;;;;24.57;16.00;;;8.80;99.90;;;;;;5070912;28;20557;-73
2021/11/19 11:38:24;;;;;;;28.00;16.80;;;8.70;99.90;;;;;;5071447;28;20442;-73
2021/11/19 11:41:23;;;;;;;24.00;16.88;;;8.70;99.90;;;;;;5068476;28;20418;-74
2021/11/19 11:44:16;;;;;;;47.23;27.20;;;8.70;99.90;;;;;;5063293;28;20219;-75
2021/11/19 11:47:06;;;;;;;58.70;32.17;;;8.80;99.90;;;;;;5063599;28;20435;-74
2021/11/19 11:49:54;;;;;;;32.30;21.57;;;8.90;99.90;;;;;;5067768;28;20495;-74
2021/11/19 11:53:01;;;;;;;30.90;20.83;;;8.90;99.90;;;;;;5067311;28;20518;-74
2021/11/19 11:56:16;;;;;;;29.10;17.13;;;8.90;99.90;;;;;;5064077;28;20450;-74
2021/11/19 11:59:06;;;;;;;29.80;17.27;;;8.80;99.90;;;;;;5063239;28;20451;-74
2021/11/19 12:01:56;;;;;;;25.63;16.30;;;8.80;99.90;;;;;;5069675;28;20550;-74
2021/11/19 12:04:48;;;;;;;24.87;15.90;;;8.80;99.90;;;;;;5069406;28;20413;-74
2021/11/19 12:07:49;;;;;;;33.67;17.13;;;8.90;99.90;;;;;;5070732;28;20439;-73
2021/11/19 12:11:16;;;;;;;28.20;16.23;;;8.90;99.90;;;;;;5068218;28;20529;-74
2021/11/19 12:14:15;;;;;;;28.00;18.00;;;8.80;99.90;;;;;;5067141;28;20489;-73
2021/11/19 12:17:09;;;;;;;66.10;37.23;;;8.90;99.90;;;;;;5066192;28;20928;-74
2021/11/19 12:20:01;;;;;;;25.47;17.03;;;9.00;99.90;;;;;;5069333;28;20438;-74
2021/11/19 12:22:52;;;;;;;24.53;15.00;;;8.90;99.90;;;;;;5063506;28;20565;-74
2021/11/19 12:26:03;;;;;;;21.07;14.87;;;8.90;99.90;;;;;;5064815;28;20492;-74
2021/11/19 12:29:00;;;;;;;26.20;16.07;;;8.90;99.90;;;;;;5069860;28;20815;-73
2021/11/19 12:31:51;;;;;;;27.67;14.73;;;8.90;99.90;;;;;;5067771;28;20446;-73
2021/11/19 12:34:39;;;;;;;21.10;14.20;;;8.90;99.90;;;;;;5069357;28;20446;-73
2021/11/19 12:37:31;;;;;;;26.80;16.13;;;8.90;99.90;;;;;;5067950;28;20458;-73
2021/11/19 12:40:24;;;;;;;23.15;17.00;;;8.90;99.90;;;;;;5063560;28;20597;-73
2021/11/19 12:43:25;;;;;;;24.43;16.07;;;8.90;99.90;;;;;;5067657;28;20217;-73
2021/11/19 12:46:22;;;;;;;26.23;16.50;;;8.90;99.90;;;;;;5066239;28;20441;-73
2021/11/19 12:49:47;;;;;;;19.17;14.80;;;8.90;99.90;;;;;;5067249;28;20438;-73
2021/11/19 12:52:36;;;;;;;25.57;13.87;;;8.90;99.90;;;;;;5062594;28;20470;-73
2021/11/19 12:55:35;;;;;;;27.47;13.97;;;8.90;99.90;;;;;;5067750;28;20450;-73
2021/11/19 12:58:27;;;;;;;28.77;15.63;;;8.80;99.90;;;;;;5064010;28;21182;-73
2021/11/19 13:01:52;;;;;;;24.77;13.67;;;8.90;99.90;;;;;;5066546;28;20434;-73
2021/11/19 13:04:51;;;;;;;21.07;14.37;;;8.90;99.90;;;;;;5067340;28;20478;-73
2021/11/19 13:07:52;;;;;;;20.10;14.57;;;9.00;99.90;;;;;;5067201;28;20460;-73
2021/11/19 13:10:50;;;;;;;24.00;14.43;;;9.00;99.90;;;;;;5066288;28;20454;-73
2021/11/19 13:13:38;;;;;;;24.87;16.93;;;9.00;99.90;;;;;;5068234;28;20609;-73
2021/11/19 13:16:35;;;;;;;23.43;14.80;;;9.00;99.90;;;;;;5065366;28;20451;-73
2021/11/19 13:19:52;;;;;;;22.97;15.70;;;9.00;99.90;;;;;;5070767;28;20429;-73
2021/11/19 13:22:48;;;;;;;20.87;13.70;;;8.80;99.90;;;;;;5043581;28;20462;-73
2021/11/19 13:25:45;;;;;;;22.60;14.43;;;8.90;99.90;;;;;;5063483;28;21031;-73
2021/11/19 13:28:53;;;;;;;17.90;13.00;;;8.90;99.90;;;;;;5063788;28;20496;-73
2021/11/19 13:31:41;;;;;;;20.93;13.53;;;8.90;99.90;;;;;;5066439;28;21013;-73
2021/11/19 13:34:45;;;;;;;22.73;14.63;;;8.70;99.90;;;;;;5067942;28;20443;-73
2021/11/19 13:37:33;;;;;;;20.73;13.70;;;8.70;99.90;;;;;;5070663;28;20422;-73
2021/11/19 13:40:36;;;;;;;21.27;12.00;;;8.70;99.90;;;;;;5067033;28;20459;-73
2021/11/19 13:43:50;;;;;;;22.27;12.90;;;8.90;99.90;;;;;;5069397;28;20845;-73
2021/11/19 13:46:48;;;;;;;18.00;12.80;;;8.80;99.90;;;;;;5034357;28;20829;-73
2021/11/19 13:49:49;;;;;;;18.77;13.67;;;8.80;99.90;;;;;;5062507;28;20455;-73
2021/11/19 13:52:42;;;;;;;22.40;14.60;;;8.90;99.90;;;;;;5065450;28;21039;-73
2021/11/19 13:55:32;;;;;;;23.33;16.10;;;8.90;99.90;;;;;;5064548;28;20466;-73
2021/11/19 13:58:37;;;;;;;25.60;15.47;;;8.90;99.90;;;;;;5068102;28;20443;-73
2021/11/19 14:01:40;;;;;;;29.37;17.90;;;8.90;99.90;;;;;;5068337;28;20485;-73
2021/11/19 14:04:30;;;;;;;28.17;16.63;;;8.90;99.90;;;;;;5064348;28;21101;-73
2021/11/19 14:07:19;;;;;;;32.67;17.80;;;9.00;99.90;;;;;;5067498;28;21013;-73
2021/11/19 14:10:16;;;;;;;23.63;16.40;;;9.00;99.90;;;;;;5065301;28;20492;-73
2021/11/19 14:13:05;;;;;;;33.37;20.33;;;9.00;99.90;;;;;;5063420;28;20545;-73
2021/11/19 14:16:02;;;;;;;26.40;18.92;;;9.00;99.90;;;;;;5064505;28;20528;-73
2021/11/19 14:19:07;;;;;;;26.00;17.20;;;9.00;99.90;;;;;;5067352;28;20196;-73
2021/11/19 14:21:58;;;;;;;30.17;18.40;;;9.00;99.90;;;;;;5063427;28;20623;-73
2021/11/19 14:24:55;;;;;;;30.07;20.27;;;9.00;99.90;;;;;;5067214;28;20438;-73
2021/11/19 14:27:45;;;;;;;33.10;19.67;;;9.10;99.90;;;;;;5062651;28;20524;-73
2021/11/19 14:30:36;;;;;;;26.07;18.63;;;9.10;99.90;;;;;;5064107;28;20426;-73
2021/11/19 14:33:31;;;;;;;30.27;18.00;;;9.10;99.90;;;;;;5063645;28;20513;-73
2021/11/19 14:36:22;;;;;;;27.97;17.33;;;9.20;99.90;;;;;;5062763;28;20437;-73
2021/11/19 14:39:14;;;;;;;28.63;17.87;;;9.20;99.90;;;;;;5064637;28;20440;-73